Terminal Aerodrome Forecast
Issued by NWS

Home | Current Version | Previous Version | Text Only | Print | Product List | Glossary On
Versions: 1 2 3 4 5 6 7 8 9 10 11 12
000
FTUS46 KSTO 232326
TAFSMF
TAF
KSMF 232326Z 2400/2424 17010KT P6SM BKN050 BKN100
      TEMPO 2402/2406 5SM -SHRA BKN030
     FM241700 34007KT P6SM SCT250=

USA.gov is the U.S. government's official web portal to all federal, state and local government web resources and services.